sensor_id;sensor_type;location;lat;lon;timestamp;pressure;altitude;pressure_sealevel;temperature;humidity
86111;BME280;76766;52.874;11.218;2024-02-23T00:00:35;98028.53;;;18.84;52.91
86111;BME280;76766;52.874;11.218;2024-02-23T00:03:00;98027.72;;;18.84;52.86
86111;BME280;76766;52.874;11.218;2024-02-23T00:05:26;98034.53;;;18.81;53.20
86111;BME280;76766;52.874;11.218;2024-02-23T00:07:52;98049.94;;;18.81;53.13
86111;BME280;76766;52.874;11.218;2024-02-23T00:10:18;98059.16;;;18.80;53.21
86111;BME280;76766;52.874;11.218;2024-02-23T00:12:44;98051.34;;;18.78;53.26
86111;BME280;76766;52.874;11.218;2024-02-23T00:15:10;98065.94;;;18.77;53.40
86111;BME280;76766;52.874;11.218;2024-02-23T00:17:36;98059.75;;;18.76;53.40
86111;BME280;76766;52.874;11.218;2024-02-23T00:20:03;98082.47;;;18.75;53.36
86111;BME280;76766;52.874;11.218;2024-02-23T00:22:29;98081.97;;;18.73;53.26
86111;BME280;76766;52.874;11.218;2024-02-23T00:24:55;98083.03;;;18.72;53.26
86111;BME280;76766;52.874;11.218;2024-02-23T00:27:21;98090.34;;;18.72;53.60
86111;BME280;76766;52.874;11.218;2024-02-23T00:29:47;98109.56;;;18.70;53.55
86111;BME280;76766;52.874;11.218;2024-02-23T00:32:13;98111.47;;;18.70;53.44
86111;BME280;76766;52.874;11.218;2024-02-23T00:34:39;98106.34;;;18.68;53.56
86111;BME280;76766;52.874;11.218;2024-02-23T00:37:05;98130.97;;;18.67;53.54
86111;BME280;76766;52.874;11.218;2024-02-23T00:39:33;98119.34;;;18.66;53.67
86111;BME280;76766;52.874;11.218;2024-02-23T00:41:59;98139.34;;;18.65;53.59
86111;BME280;76766;52.874;11.218;2024-02-23T00:44:25;98135.88;;;18.65;53.70
86111;BME280;76766;52.874;11.218;2024-02-23T00:46:51;98149.66;;;18.63;53.53
86111;BME280;76766;52.874;11.218;2024-02-23T00:49:17;98146.94;;;18.63;53.81
86111;BME280;76766;52.874;11.218;2024-02-23T00:51:43;98156.44;;;18.61;53.75
86111;BME280;76766;52.874;11.218;2024-02-23T00:54:09;98179.94;;;18.60;53.61
86111;BME280;76766;52.874;11.218;2024-02-23T00:56:35;98180.25;;;18.59;53.81
86111;BME280;76766;52.874;11.218;2024-02-23T00:59:01;98166.75;;;18.59;53.69
86111;BME280;76766;52.874;11.218;2024-02-23T01:01:27;98192.44;;;18.56;53.68
86111;BME280;76766;52.874;11.218;2024-02-23T01:03:54;98194.03;;;18.57;53.80
86111;BME280;76766;52.874;11.218;2024-02-23T01:06:20;98194.34;;;18.56;53.78
86111;BME280;76766;52.874;11.218;2024-02-23T01:08:46;98188.44;;;18.54;53.69
86111;BME280;76766;52.874;11.218;2024-02-23T01:11:13;98193.03;;;18.53;53.63
86111;BME280;76766;52.874;11.218;2024-02-23T01:13:39;98200.31;;;18.53;53.83
86111;BME280;76766;52.874;11.218;2024-02-23T01:16:05;98212.22;;;18.52;53.85
86111;BME280;76766;52.874;11.218;2024-02-23T01:18:31;98226.84;;;18.51;53.95
86111;BME280;76766;52.874;11.218;2024-02-23T01:20:57;98236.84;;;18.50;53.85
86111;BME280;76766;52.874;11.218;2024-02-23T01:23:23;98243.31;;;18.49;53.86
86111;BME280;76766;52.874;11.218;2024-02-23T01:25:49;98249.00;;;18.48;54.06
86111;BME280;76766;52.874;11.218;2024-02-23T01:28:15;98259.81;;;18.48;53.96
86111;BME280;76766;52.874;11.218;2024-02-23T01:30:41;98259.81;;;18.48;54.06
86111;BME280;76766;52.874;11.218;2024-02-23T01:33:07;98268.97;;;18.47;53.94
86111;BME280;76766;52.874;11.218;2024-02-23T01:35:34;98263.84;;;18.45;54.17
86111;BME280;76766;52.874;11.218;2024-02-23T01:38:00;98274.66;;;18.45;54.18
86111;BME280;76766;52.874;11.218;2024-02-23T01:40:26;98271.44;;;18.43;54.04
86111;BME280;76766;52.874;11.218;2024-02-23T01:43:09;98279.03;;;18.41;54.05
86111;BME280;76766;52.874;11.218;2024-02-23T01:45:35;98283.38;;;18.42;54.01
86111;BME280;76766;52.874;11.218;2024-02-23T01:48:02;98289.84;;;18.41;54.09
86111;BME280;76766;52.874;11.218;2024-02-23T01:50:29;98296.88;;;18.42;54.18
86111;BME280;76766;52.874;11.218;2024-02-23T01:53:00;98298.22;;;18.40;54.14
86111;BME280;76766;52.874;11.218;2024-02-23T01:55:26;98303.94;;;18.38;54.18
86111;BME280;76766;52.874;11.218;2024-02-23T01:57:53;98320.41;;;18.37;54.33
86111;BME280;76766;52.874;11.218;2024-02-23T02:00:20;98310.41;;;18.37;54.47
86111;BME280;76766;52.874;11.218;2024-02-23T02:02:48;98317.69;;;18.37;54.35
86111;BME280;76766;52.874;11.218;2024-02-23T02:05:14;98324.22;;;18.36;54.27
86111;BME280;76766;52.874;11.218;2024-02-23T02:07:43;98326.09;;;18.35;54.15
86111;BME280;76766;52.874;11.218;2024-02-23T02:10:09;98334.22;;;18.35;54.25
86111;BME280;76766;52.874;11.218;2024-02-23T02:12:35;98327.19;;;18.34;54.17
86111;BME280;76766;52.874;11.218;2024-02-23T02:15:02;98332.59;;;18.34;54.25
86111;BME280;76766;52.874;11.218;2024-02-23T02:17:28;98316.38;;;18.34;54.30
86111;BME280;76766;52.874;11.218;2024-02-23T02:19:54;98322.09;;;18.33;54.33
86111;BME280;76766;52.874;11.218;2024-02-23T02:22:20;98334.25;;;18.30;54.24
86111;BME280;76766;52.874;11.218;2024-02-23T02:24:46;98337.78;;;18.31;54.25
86111;BME280;76766;52.874;11.218;2024-02-23T02:27:14;98332.38;;;18.31;54.13
86111;BME280;76766;52.874;11.218;2024-02-23T02:29:40;98343.44;;;18.29;54.18
86111;BME280;76766;52.874;11.218;2024-02-23T02:32:06;98345.34;;;18.29;54.29
86111;BME280;76766;52.874;11.218;2024-02-23T02:34:33;98360.72;;;18.28;54.22
86111;BME280;76766;52.874;11.218;2024-02-23T02:37:00;98369.94;;;18.27;54.24
86111;BME280;76766;52.874;11.218;2024-02-23T02:39:27;98373.72;;;18.26;54.26
86111;BME280;76766;52.874;11.218;2024-02-23T02:41:53;98405.31;;;18.26;54.21
86111;BME280;76766;52.874;11.218;2024-02-23T02:44:19;98397.50;;;18.24;54.34
86111;BME280;76766;52.874;11.218;2024-02-23T02:46:45;98424.53;;;18.24;54.29
86111;BME280;76766;52.874;11.218;2024-02-23T02:49:12;98413.72;;;18.24;54.26
86111;BME280;76766;52.874;11.218;2024-02-23T02:51:38;98414.78;;;18.23;54.39
86111;BME280;76766;52.874;11.218;2024-02-23T02:54:05;98422.09;;;18.22;54.23
86111;BME280;76766;52.874;11.218;2024-02-23T02:56:31;98451.00;;;18.22;54.51
86111;BME280;76766;52.874;11.218;2024-02-23T02:58:57;98453.97;;;18.20;54.24
86111;BME280;76766;52.874;11.218;2024-02-23T03:01:23;98499.06;;;18.20;54.32
86111;BME280;76766;52.874;11.218;2024-02-23T03:03:49;98526.06;;;18.20;54.38
86111;BME280;76766;52.874;11.218;2024-02-23T03:06:15;98522.56;;;18.19;54.48
86111;BME280;76766;52.874;11.218;2024-02-23T03:08:42;98522.84;;;18.18;54.49
86111;BME280;76766;52.874;11.218;2024-02-23T03:11:08;98544.47;;;18.18;54.44
86111;BME280;76766;52.874;11.218;2024-02-23T03:13:34;98538.25;;;18.17;54.36
86111;BME280;76766;52.874;11.218;2024-02-23T03:16:00;98550.16;;;18.16;54.50
86111;BME280;76766;52.874;11.218;2024-02-23T03:18:26;98557.44;;;18.16;54.53
86111;BME280;76766;52.874;11.218;2024-02-23T03:20:53;98575.53;;;18.15;54.64
86111;BME280;76766;52.874;11.218;2024-02-23T03:23:20;98573.91;;;18.14;54.58
86111;BME280;76766;52.874;11.218;2024-02-23T03:25:46;98585.00;;;18.13;54.57
86111;BME280;76766;52.874;11.218;2024-02-23T03:28:12;98583.38;;;18.12;54.63
86111;BME280;76766;52.874;11.218;2024-02-23T03:30:38;98592.56;;;18.11;54.60
86111;BME280;76766;52.874;11.218;2024-02-23T03:33:04;98618.78;;;18.10;54.75
86111;BME280;76766;52.874;11.218;2024-02-23T03:35:30;98637.69;;;18.10;54.72
86111;BME280;76766;52.874;11.218;2024-02-23T03:37:56;98645.22;;;18.08;54.74
86111;BME280;76766;52.874;11.218;2024-02-23T03:40:22;98644.44;;;18.08;54.78
86111;BME280;76766;52.874;11.218;2024-02-23T03:42:48;98660.63;;;18.08;54.76
86111;BME280;76766;52.874;11.218;2024-02-23T03:45:14;98667.13;;;18.07;54.86
86111;BME280;76766;52.874;11.218;2024-02-23T03:47:40;98665.47;;;18.06;54.76
86111;BME280;76766;52.874;11.218;2024-02-23T03:50:07;98681.69;;;18.06;54.78
86111;BME280;76766;52.874;11.218;2024-02-23T03:52:33;98674.69;;;18.05;54.71
86111;BME280;76766;52.874;11.218;2024-02-23T03:54:59;98689.25;;;18.04;54.76
86111;BME280;76766;52.874;11.218;2024-02-23T03:57:25;98697.38;;;18.04;54.94
86111;BME280;76766;52.874;11.218;2024-02-23T03:59:54;98702.22;;;18.02;54.92
86111;BME280;76766;52.874;11.218;2024-02-23T04:02:21;98720.56;;;18.00;54.96
86111;BME280;76766;52.874;11.218;2024-02-23T04:04:48;98724.91;;;18.01;54.94
86111;BME280;76766;52.874;11.218;2024-02-23T04:07:14;98717.88;;;18.00;54.98
86111;BME280;76766;52.874;11.218;2024-02-23T04:09:40;98739.47;;;18.00;54.97
86111;BME280;76766;52.874;11.218;2024-02-23T04:12:06;98737.59;;;18.00;54.97
86111;BME280;76766;52.874;11.218;2024-02-23T04:14:33;98742.19;;;18.00;54.87
86111;BME280;76766;52.874;11.218;2024-02-23T04:17:03;98738.94;;;17.98;55.16
86111;BME280;76766;52.874;11.218;2024-02-23T04:19:29;98750.81;;;17.97;54.91
86111;BME280;76766;52.874;11.218;2024-02-23T04:21:55;98758.91;;;17.97;54.83
86111;BME280;76766;52.874;11.218;2024-02-23T04:24:21;98761.91;;;17.95;55.03
86111;BME280;76766;52.874;11.218;2024-02-23T04:26:47;98772.69;;;17.95;55.19
86111;BME280;76766;52.874;11.218;2024-02-23T04:29:13;98780.28;;;17.93;55.09
86111;BME280;76766;52.874;11.218;2024-02-23T04:31:39;98792.41;;;17.91;55.11
86111;BME280;76766;52.874;11.218;2024-02-23T04:34:05;98797.78;;;17.91;55.05
86111;BME280;76766;52.874;11.218;2024-02-23T04:36:31;98800.50;;;17.91;55.10
86111;BME280;76766;52.874;11.218;2024-02-23T04:38:58;98798.91;;;17.90;55.14
86111;BME280;76766;52.874;11.218;2024-02-23T04:41:23;98810.22;;;17.92;55.27
86111;BME280;76766;52.874;11.218;2024-02-23T04:43:50;98814.81;;;17.91;55.37
86111;BME280;76766;52.874;11.218;2024-02-23T04:46:16;98824.25;;;17.94;55.32
86111;BME280;76766;52.874;11.218;2024-02-23T04:48:42;98823.19;;;17.95;55.51
86111;BME280;76766;52.874;11.218;2024-02-23T04:51:08;98835.31;;;17.97;55.87
86111;BME280;76766;52.874;11.218;2024-02-23T04:53:37;98837.78;;;17.99;55.59
86111;BME280;76766;52.874;11.218;2024-02-23T04:56:04;98844.78;;;18.00;55.64
86111;BME280;76766;52.874;11.218;2024-02-23T04:58:30;98846.94;;;18.03;55.84
86111;BME280;76766;52.874;11.218;2024-02-23T05:00:56;98850.19;;;18.05;55.80
86111;BME280;76766;52.874;11.218;2024-02-23T05:03:22;98852.34;;;18.08;55.67
86111;BME280;76766;52.874;11.218;2024-02-23T05:05:48;98851.00;;;18.10;55.84
86111;BME280;76766;52.874;11.218;2024-02-23T05:08:20;98865.84;;;18.13;55.85
86111;BME280;76766;52.874;11.218;2024-02-23T05:10:47;98862.88;;;18.14;55.91
86111;BME280;76766;52.874;11.218;2024-02-23T05:13:13;98867.72;;;18.17;55.87
86111;BME280;76766;52.874;11.218;2024-02-23T05:15:39;98875.56;;;18.19;56.10
86111;BME280;76766;52.874;11.218;2024-02-23T05:18:05;98868.00;;;18.21;56.08
86111;BME280;76766;52.874;11.218;2024-02-23T05:20:31;98883.66;;;18.24;55.95
86111;BME280;76766;52.874;11.218;2024-02-23T05:22:58;98886.91;;;18.26;55.94
86111;BME280;76766;52.874;11.218;2024-02-23T05:25:24;98882.03;;;18.28;56.07
86111;BME280;76766;52.874;11.218;2024-02-23T05:27:51;98886.38;;;18.29;55.97
86111;BME280;76766;52.874;11.218;2024-02-23T05:30:17;98886.38;;;18.29;55.75
86111;BME280;76766;52.874;11.218;2024-02-23T05:32:43;98890.94;;;18.29;55.66
86111;BME280;76766;52.874;11.218;2024-02-23T05:35:09;98894.47;;;18.29;55.65
86111;BME280;76766;52.874;11.218;2024-02-23T05:37:36;98892.28;;;18.31;55.88
86111;BME280;76766;52.874;11.218;2024-02-23T05:40:04;98898.25;;;18.33;55.64
86111;BME280;76766;52.874;11.218;2024-02-23T05:42:39;98888.28;;;18.34;55.75
86111;BME280;76766;52.874;11.218;2024-02-23T05:45:07;98882.06;;;18.33;55.57
86111;BME280;76766;52.874;11.218;2024-02-23T05:47:38;98897.97;;;18.35;55.58
86111;BME280;76766;52.874;11.218;2024-02-23T05:50:05;98897.72;;;18.36;55.60
86111;BME280;76766;52.874;11.218;2024-02-23T05:52:32;98900.13;;;18.38;55.48
86111;BME280;76766;52.874;11.218;2024-02-23T05:54:58;98904.19;;;18.40;55.41
86111;BME280;76766;52.874;11.218;2024-02-23T05:57:28;98905.53;;;18.38;55.57
86111;BME280;76766;52.874;11.218;2024-02-23T05:59:54;98915.28;;;18.39;55.49
86111;BME280;76766;52.874;11.218;2024-02-23T06:02:23;98904.47;;;18.39;55.50
86111;BME280;76766;52.874;11.218;2024-02-23T06:04:50;98914.19;;;18.40;55.44
86111;BME280;76766;52.874;11.218;2024-02-23T06:07:16;98920.13;;;18.42;55.10
86111;BME280;76766;52.874;11.218;2024-02-23T06:09:42;98915.56;;;18.42;55.39
86111;BME280;76766;52.874;11.218;2024-02-23T06:12:09;98929.84;;;18.43;55.18
86111;BME280;76766;52.874;11.218;2024-02-23T06:14:35;98931.75;;;18.42;55.36
86111;BME280;76766;52.874;11.218;2024-02-23T06:17:02;98942.28;;;18.44;55.20
86111;BME280;76766;52.874;11.218;2024-02-23T06:19:28;98949.31;;;18.45;55.34
86111;BME280;76766;52.874;11.218;2024-02-23T06:21:54;98947.41;;;18.45;55.21
86111;BME280;76766;52.874;11.218;2024-02-23T06:24:20;98959.84;;;18.46;55.13
86111;BME280;76766;52.874;11.218;2024-02-23T06:26:46;98962.53;;;18.46;55.12
86111;BME280;76766;52.874;11.218;2024-02-23T06:29:14;98968.75;;;18.47;55.24
86111;BME280;76766;52.874;11.218;2024-02-23T06:31:40;98958.78;;;18.47;55.13
86111;BME280;76766;52.874;11.218;2024-02-23T06:34:07;98965.00;;;18.48;55.13
86111;BME280;76766;52.874;11.218;2024-02-23T06:36:34;98975.56;;;18.49;55.13
86111;BME280;76766;52.874;11.218;2024-02-23T06:39:00;98986.34;;;18.49;54.98
86111;BME280;76766;52.874;11.218;2024-02-23T06:41:26;98986.09;;;18.51;54.91
86111;BME280;76766;52.874;11.218;2024-02-23T06:43:52;98996.91;;;18.51;55.06
86111;BME280;76766;52.874;11.218;2024-02-23T06:46:19;99005.81;;;18.51;54.92
86111;BME280;76766;52.874;11.218;2024-02-23T06:48:46;99008.50;;;18.51;54.84
86111;BME280;76766;52.874;11.218;2024-02-23T06:51:12;99020.13;;;18.52;54.96
86111;BME280;76766;52.874;11.218;2024-02-23T06:53:38;99024.47;;;18.53;54.94
86111;BME280;76766;52.874;11.218;2024-02-23T06:56:04;99033.09;;;18.55;54.55
86111;BME280;76766;52.874;11.218;2024-02-23T06:58:30;99043.66;;;18.56;54.71
86111;BME280;76766;52.874;11.218;2024-02-23T07:00:56;99037.44;;;18.56;54.53
86111;BME280;76766;52.874;11.218;2024-02-23T07:03:22;99045.28;;;18.57;54.59
86111;BME280;76766;52.874;11.218;2024-02-23T07:05:48;99048.78;;;18.58;54.42
86111;BME280;76766;52.874;11.218;2024-02-23T07:08:15;99056.66;;;18.59;54.48
86111;BME280;76766;52.874;11.218;2024-02-23T07:10:41;99052.84;;;18.65;54.40
86111;BME280;76766;52.874;11.218;2024-02-23T07:13:07;99055.00;;;18.68;54.26
86111;BME280;76766;52.874;11.218;2024-02-23T07:15:34;99053.41;;;18.72;54.22
86111;BME280;76766;52.874;11.218;2024-02-23T07:18:01;99056.91;;;18.73;54.13
86111;BME280;76766;52.874;11.218;2024-02-23T07:20:27;99068.00;;;18.76;54.07
86111;BME280;76766;52.874;11.218;2024-02-23T07:22:53;99052.31;;;18.78;53.90
86111;BME280;76766;52.874;11.218;2024-02-23T07:25:20;99063.41;;;18.82;53.95
86111;BME280;76766;52.874;11.218;2024-02-23T07:27:49;99049.34;;;18.85;53.74
86111;BME280;76766;52.874;11.218;2024-02-23T07:30:15;99055.81;;;18.89;53.51
86111;BME280;76766;52.874;11.218;2024-02-23T07:32:43;99061.22;;;18.94;53.36
86111;BME280;76766;52.874;11.218;2024-02-23T07:35:09;99060.69;;;18.97;53.24
86111;BME280;76766;52.874;11.218;2024-02-23T07:37:36;99059.91;;;18.97;53.31
86111;BME280;76766;52.874;11.218;2024-02-23T07:40:02;99062.06;;;19.00;53.21
86111;BME280;76766;52.874;11.218;2024-02-23T07:42:31;99073.41;;;19.02;52.98
86111;BME280;76766;52.874;11.218;2024-02-23T07:44:57;99069.59;;;19.03;52.97
86111;BME280;76766;52.874;11.218;2024-02-23T07:47:23;99076.91;;;19.07;52.76
86111;BME280;76766;52.874;11.218;2024-02-23T07:49:49;99080.44;;;19.08;52.54
86111;BME280;76766;52.874;11.218;2024-02-23T07:52:16;99081.81;;;19.05;52.73
86111;BME280;76766;52.874;11.218;2024-02-23T07:54:42;99089.63;;;19.07;52.83
86111;BME280;76766;52.874;11.218;2024-02-23T07:57:08;99105.88;;;19.02;53.18
86111;BME280;76766;52.874;11.218;2024-02-23T07:59:34;99106.13;;;18.90;53.79
86111;BME280;76766;52.874;11.218;2024-02-23T08:02:01;99120.72;;;18.94;53.59
86111;BME280;76766;52.874;11.218;2024-02-23T08:04:27;99115.59;;;19.08;53.37
86111;BME280;76766;52.874;11.218;2024-02-23T08:06:52;99109.66;;;19.16;53.29
86111;BME280;76766;52.874;11.218;2024-02-23T08:09:18;99133.19;;;19.25;52.76
86111;BME280;76766;52.874;11.218;2024-02-23T08:11:44;99128.81;;;19.34;52.75
86111;BME280;76766;52.874;11.218;2024-02-23T08:14:12;99126.94;;;19.55;52.16
86111;BME280;76766;52.874;11.218;2024-02-23T08:16:38;99138.03;;;19.74;51.34
86111;BME280;76766;52.874;11.218;2024-02-23T08:19:04;99136.09;;;19.84;50.92
86111;BME280;76766;52.874;11.218;2024-02-23T08:21:30;99128.75;;;20.00;50.73
86111;BME280;76766;52.874;11.218;2024-02-23T08:23:56;99137.63;;;20.11;50.57
86111;BME280;76766;52.874;11.218;2024-02-23T08:26:22;99142.47;;;20.19;50.74
86111;BME280;76766;52.874;11.218;2024-02-23T08:28:48;99147.34;;;20.22;50.41
86111;BME280;76766;52.874;11.218;2024-02-23T08:31:14;99151.94;;;20.26;50.56
86111;BME280;76766;52.874;11.218;2024-02-23T08:33:42;99159.19;;;20.46;50.07
86111;BME280;76766;52.874;11.218;2024-02-23T08:36:08;99158.56;;;20.59;49.66
86111;BME280;76766;52.874;11.218;2024-02-23T08:38:34;99159.09;;;20.61;49.61
86111;BME280;76766;52.874;11.218;2024-02-23T08:41:00;99156.16;;;20.53;50.13
86111;BME280;76766;52.874;11.218;2024-02-23T08:43:26;99159.94;;;20.57;49.85
86111;BME280;76766;52.874;11.218;2024-02-23T08:45:52;99169.94;;;20.61;49.42
86111;BME280;76766;52.874;11.218;2024-02-23T08:48:18;99170.03;;;20.90;49.20
86111;BME280;76766;52.874;11.218;2024-02-23T08:50:44;99157.78;;;20.97;48.98
86111;BME280;76766;52.874;11.218;2024-02-23T08:53:10;99165.53;;;21.48;48.31
86111;BME280;76766;52.874;11.218;2024-02-23T08:55:36;99167.34;;;21.86;47.31
86111;BME280;76766;52.874;11.218;2024-02-23T08:58:02;99168.72;;;22.12;46.73
86111;BME280;76766;52.874;11.218;2024-02-23T09:00:28;99168.31;;;22.00;47.08
86111;BME280;76766;52.874;11.218;2024-02-23T09:02:54;99171.03;;;21.72;47.64
86111;BME280;76766;52.874;11.218;2024-02-23T09:05:20;99173.19;;;22.69;45.70
86111;BME280;76766;52.874;11.218;2024-02-23T09:07:46;99181.78;;;23.14;44.57
86111;BME280;76766;52.874;11.218;2024-02-23T09:10:12;99182.22;;;23.40;43.66
86111;BME280;76766;52.874;11.218;2024-02-23T09:12:38;99201.38;;;23.67;43.08
86111;BME280;76766;52.874;11.218;2024-02-23T09:15:04;99196.72;;;24.27;42.11
86111;BME280;76766;52.874;11.218;2024-02-23T09:17:31;99206.50;;;24.69;41.27
86111;BME280;76766;52.874;11.218;2024-02-23T09:19:57;99202.75;;;24.92;40.33
86111;BME280;76766;52.874;11.218;2024-02-23T09:22:23;99201.97;;;24.23;41.74
86111;BME280;76766;52.874;11.218;2024-02-23T09:24:49;99205.81;;;24.22;42.00
86111;BME280;76766;52.874;11.218;2024-02-23T09:27:15;99212.69;;;24.47;41.51
86111;BME280;76766;52.874;11.218;2024-02-23T09:29:41;99205.41;;;25.06;40.07
86111;BME280;76766;52.874;11.218;2024-02-23T09:32:08;99204.06;;;24.81;40.50
86111;BME280;76766;52.874;11.218;2024-02-23T09:34:34;99211.75;;;24.92;40.37
86111;BME280;76766;52.874;11.218;2024-02-23T09:37:00;99219.25;;;24.73;40.84
86111;BME280;76766;52.874;11.218;2024-02-23T09:39:26;99222.69;;;25.51;39.10
86111;BME280;76766;52.874;11.218;2024-02-23T09:41:56;99227.91;;;25.61;39.01
86111;BME280;76766;52.874;11.218;2024-02-23T09:44:22;99235.66;;;25.09;40.27
86111;BME280;76766;52.874;11.218;2024-02-23T09:46:48;99237.34;;;25.77;38.67
86111;BME280;76766;52.874;11.218;2024-02-23T09:49:15;99238.78;;;26.05;37.99
86111;BME280;76766;52.874;11.218;2024-02-23T09:51:42;99241.38;;;26.10;37.54
86111;BME280;76766;52.874;11.218;2024-02-23T09:54:09;99244.22;;;26.27;37.28
86111;BME280;76766;52.874;11.218;2024-02-23T09:56:35;99242.50;;;26.09;37.37
86111;BME280;76766;52.874;11.218;2024-02-23T09:59:03;99251.59;;;25.96;37.87
86111;BME280;76766;52.874;11.218;2024-02-23T10:01:31;99248.50;;;25.44;38.84
86111;BME280;76766;52.874;11.218;2024-02-23T10:04:00;99242.00;;;25.18;39.50
86111;BME280;76766;52.874;11.218;2024-02-23T10:06:27;99233.78;;;24.96;39.88
86111;BME280;76766;52.874;11.218;2024-02-23T10:08:53;99253.41;;;24.84;40.38
86111;BME280;76766;52.874;11.218;2024-02-23T10:11:23;99259.88;;;24.61;40.77
86111;BME280;76766;52.874;11.218;2024-02-23T10:13:49;99262.91;;;24.46;41.12
86111;BME280;76766;52.874;11.218;2024-02-23T10:16:16;99264.72;;;24.37;41.52
86111;BME280;76766;52.874;11.218;2024-02-23T10:18:42;99266.50;;;24.28;41.54
86111;BME280;76766;52.874;11.218;2024-02-23T10:21:08;99269.13;;;24.19;41.83
86111;BME280;76766;52.874;11.218;2024-02-23T10:23:34;99266.50;;;24.14;42.06
86111;BME280;76766;52.874;11.218;2024-02-23T10:26:00;99262.03;;;24.05;42.36
86111;BME280;76766;52.874;11.218;2024-02-23T10:28:26;99273.53;;;24.02;42.51
86111;BME280;76766;52.874;11.218;2024-02-23T10:30:53;99267.25;;;24.01;42.72
86111;BME280;76766;52.874;11.218;2024-02-23T10:33:22;99272.88;;;23.91;42.66
86111;BME280;76766;52.874;11.218;2024-02-23T10:35:55;99275.69;;;23.86;42.65
86111;BME280;76766;52.874;11.218;2024-02-23T10:38:23;99274.97;;;23.80;42.93
86111;BME280;76766;52.874;11.218;2024-02-23T10:40:50;99282.44;;;23.75;42.90
86111;BME280;76766;52.874;11.218;2024-02-23T10:43:19;99279.47;;;23.71;43.02
86111;BME280;76766;52.874;11.218;2024-02-23T10:45:47;99272.56;;;23.79;42.47
86111;BME280;76766;52.874;11.218;2024-02-23T10:48:15;99279.41;;;23.76;42.32
86111;BME280;76766;52.874;11.218;2024-02-23T10:50:41;99277.78;;;23.75;42.22
86111;BME280;76766;52.874;11.218;2024-02-23T10:53:10;99279.53;;;23.53;42.06
86111;BME280;76766;52.874;11.218;2024-02-23T10:55:37;99264.09;;;23.62;41.56
86111;BME280;76766;52.874;11.218;2024-02-23T10:58:06;99269.03;;;23.60;41.94
86111;BME280;76766;52.874;11.218;2024-02-23T11:00:37;99268.25;;;23.41;42.76
86111;BME280;76766;52.874;11.218;2024-02-23T11:03:04;99267.78;;;23.34;43.07
86111;BME280;76766;52.874;11.218;2024-02-23T11:05:33;99273.22;;;23.34;43.34
86111;BME280;76766;52.874;11.218;2024-02-23T11:07:59;99272.63;;;23.42;43.29
86111;BME280;76766;52.874;11.218;2024-02-23T11:10:25;99275.47;;;23.50;43.26
86111;BME280;76766;52.874;11.218;2024-02-23T11:12:58;99276.81;;;23.53;43.00
86111;BME280;76766;52.874;11.218;2024-02-23T11:15:29;99273.19;;;23.57;42.91
86111;BME280;76766;52.874;11.218;2024-02-23T11:17:55;99287.69;;;23.53;43.20
86111;BME280;76766;52.874;11.218;2024-02-23T11:20:21;99275.53;;;23.45;43.42
86111;BME280;76766;52.874;11.218;2024-02-23T11:22:54;99283.63;;;23.32;43.70
86111;BME280;76766;52.874;11.218;2024-02-23T11:25:20;99284.78;;;23.25;44.02
86111;BME280;76766;52.874;11.218;2024-02-23T11:27:52;99290.97;;;23.31;43.96
86111;BME280;76766;52.874;11.218;2024-02-23T11:30:18;99290.31;;;23.20;44.17
86111;BME280;76766;52.874;11.218;2024-02-23T11:32:46;99288.38;;;23.02;44.35
86111;BME280;76766;52.874;11.218;2024-02-23T11:35:16;99287.09;;;23.18;44.42
86111;BME280;76766;52.874;11.218;2024-02-23T11:37:55;99284.06;;;23.20;44.31
86111;BME280;76766;52.874;11.218;2024-02-23T11:40:29;99284.22;;;23.10;44.45
86111;BME280;76766;52.874;11.218;2024-02-23T11:42:55;99293.03;;;23.20;44.23
86111;BME280;76766;52.874;11.218;2024-02-23T11:45:21;99292.16;;;23.25;44.11
86111;BME280;76766;52.874;11.218;2024-02-23T11:47:47;99299.53;;;23.24;44.14
86111;BME280;76766;52.874;11.218;2024-02-23T11:50:14;99297.91;;;23.23;44.38
86111;BME280;76766;52.874;11.218;2024-02-23T11:52:45;99304.59;;;23.12;44.45
86111;BME280;76766;52.874;11.218;2024-02-23T11:55:11;99295.81;;;22.97;44.94
86111;BME280;76766;52.874;11.218;2024-02-23T11:57:38;99310.31;;;22.92;45.21
86111;BME280;76766;52.874;11.218;2024-02-23T12:00:05;99304.97;;;22.82;45.33
86111;BME280;76766;52.874;11.218;2024-02-23T12:02:34;99308.41;;;22.69;45.70
86111;BME280;76766;52.874;11.218;2024-02-23T12:05:01;99302.19;;;22.63;45.76
86111;BME280;76766;52.874;11.218;2024-02-23T12:07:32;99307.97;;;22.57;45.96
86111;BME280;76766;52.874;11.218;2024-02-23T12:09:58;99308.09;;;22.47;46.40
86111;BME280;76766;52.874;11.218;2024-02-23T12:12:25;99309.22;;;22.41;46.55
86111;BME280;76766;52.874;11.218;2024-02-23T12:14:52;99316.91;;;22.34;46.70
86111;BME280;76766;52.874;11.218;2024-02-23T12:17:18;99313.94;;;22.30;46.98
86111;BME280;76766;52.874;11.218;2024-02-23T12:19:45;99308.75;;;22.34;46.76
86111;BME280;76766;52.874;11.218;2024-02-23T12:22:10;99315.88;;;22.30;47.05
86111;BME280;76766;52.874;11.218;2024-02-23T12:24:41;99309.91;;;22.28;47.19
86111;BME280;76766;52.874;11.218;2024-02-23T12:27:07;99315.97;;;22.20;46.93
86111;BME280;76766;52.874;11.218;2024-02-23T12:29:33;99321.41;;;22.20;47.32
86111;BME280;76766;52.874;11.218;2024-02-23T12:32:06;99316.72;;;22.25;47.06
86111;BME280;76766;52.874;11.218;2024-02-23T12:34:32;99306.66;;;22.26;47.07
86111;BME280;76766;52.874;11.218;2024-02-23T12:36:59;99306.78;;;22.39;46.81
86111;BME280;76766;52.874;11.218;2024-02-23T12:39:25;99307.50;;;22.50;46.50
86111;BME280;76766;52.874;11.218;2024-02-23T12:41:51;99309.75;;;22.43;46.80
86111;BME280;76766;52.874;11.218;2024-02-23T12:44:17;99309.91;;;22.28;47.26
86111;BME280;76766;52.874;11.218;2024-02-23T12:46:42;99318.97;;;22.18;47.33